David, Panama
Current Conditions -  °F | °C
As of 7:00 PM on Sunday 25 Jan 2015 (Local Time) from MROC Reporting Station
Scattered Clouds Scattered Clouds  
Wind Chill: 72°   Ceiling: Unl
Heat Index: 72°   Visibility: 6mi
Dew Point: 55°   Wind: 12mph
Humidity: 57%   Direction: 70°ENE
Pressure: 29.95"   Gusts: 23mph
Location:  8.44°N, 82.43°W
Report Text: MROC 260000Z 07010G20KT 9999 FEW035 SCT250 22/13 A2995 NOSIG
Loading
Personal Weather Stations






























Interactive Weather Map New forecast layout! Learn more

10-Day Weather Forecast

Advertisements
Track Severe Weather on mobile